Terminal Aerodrome Forecast
Issued by NWS Cleveland, OH

Home | Current Version | Previous Version | Text Only | Print | Product List | Glossary Off
Versions: 1 2 3 4 5 6 7 8 9 10 11 12

000
FTUS41 KCLE 020521
TAFYNG
TAF
KYNG 020521Z 0206/0306 03004KT P6SM SCT035 OVC250
     FM020900 04004KT 6SM BR SCT012 BKN035
      TEMPO 0209/0213 3SM BR BKN012
     FM021400 35006KT P6SM BKN015
     FM021600 32008KT P6SM SCT045
     FM030100 01004KT P6SM SKC=

USA.gov is the U.S. government's official web portal to all federal, state and local government web resources and services.